createdAt,value
2018-09-30T00:00:12.497Z,75.63
2018-09-30T00:01:12.471Z,75.43
2018-09-30T00:02:12.461Z,75.84
2018-09-30T00:03:12.451Z,75.63
2018-09-30T00:04:12.435Z,75.95
2018-09-30T00:05:12.441Z,75.74
2018-09-30T00:06:12.422Z,75.74
2018-09-30T00:07:12.405Z,75.63
2018-09-30T00:08:12.395Z,75.43
2018-09-30T00:09:12.383Z,75.53
2018-09-30T00:10:12.385Z,75.02
2018-09-30T00:11:12.364Z,75.12
2018-09-30T00:12:12.349Z,75.63
2018-09-30T00:13:12.335Z,74.71
2018-09-30T00:14:12.325Z,74.60
2018-09-30T00:15:12.327Z,74.19
2018-09-30T00:16:12.302Z,74.29
2018-09-30T00:17:12.292Z,73.67
2018-09-30T00:18:12.285Z,74.29
2018-09-30T00:19:12.268Z,73.05
2018-09-30T00:20:12.260Z,73.77
2018-09-30T00:21:12.262Z,73.46
2018-09-30T00:22:12.234Z,73.77
2018-09-30T00:23:12.221Z,73.57
2018-09-30T00:24:12.212Z,73.46
2018-09-30T00:25:12.200Z,72.43
2018-09-30T00:26:12.205Z,72.85
2018-09-30T00:27:12.178Z,72.74
2018-09-30T00:28:12.166Z,72.74
2018-09-30T00:29:12.156Z,72.53
2018-09-30T00:30:12.173Z,72.81
2018-09-30T00:31:12.147Z,72.02
2018-09-30T00:32:12.121Z,72.74
2018-09-30T00:33:12.112Z,72.12
2018-09-30T00:34:12.101Z,72.53
2018-09-30T00:35:12.087Z,73.46
2018-09-30T00:36:12.118Z,73.25
2018-09-30T00:37:12.067Z,72.74
2018-09-30T00:38:12.057Z,72.60
2018-09-30T00:39:12.046Z,72.53
2018-09-30T00:40:12.031Z,72.85
2018-09-30T00:41:12.078Z,72.64
2018-09-30T00:42:12.008Z,72.64
2018-09-30T00:43:11.997Z,72.50
2018-09-30T00:44:11.984Z,72.74
2018-09-30T00:45:11.980Z,72.71
2018-09-30T00:46:11.979Z,72.74
2018-09-30T00:47:11.953Z,71.81
2018-09-30T00:48:11.942Z,72.53
2018-09-30T00:49:11.932Z,72.43
2018-09-30T00:50:11.917Z,72.74
2018-09-30T00:51:11.934Z,73.15
2018-09-30T00:52:11.895Z,72.64
2018-09-30T00:53:11.887Z,72.12
2018-09-30T00:54:11.870Z,72.33
2018-09-30T00:55:11.860Z,72.64
2018-09-30T00:56:11.848Z,73.05
2018-09-30T00:57:11.852Z,72.77
2018-09-30T00:58:11.827Z,72.74
2018-09-30T00:59:11.817Z,74.22
2018-09-30T01:00:11.805Z,74.53
2018-09-30T01:01:11.792Z,74.53
2018-09-30T01:02:11.797Z,74.84
2018-09-30T01:03:11.776Z,75.26
2018-09-30T01:04:11.764Z,74.32
2018-09-30T01:05:11.753Z,75.78
2018-09-30T01:06:11.739Z,76.09
2018-09-30T01:07:11.739Z,74.22
2018-09-30T01:08:11.716Z,74.29
2018-09-30T01:09:11.705Z,74.91
2018-09-30T01:10:11.692Z,74.22
2018-09-30T01:11:11.685Z,74.74
2018-09-30T01:12:11.682Z,74.40
2018-09-30T01:13:11.659Z,74.71
2018-09-30T01:14:11.647Z,75.78
2018-09-30T01:15:11.636Z,75.15
2018-09-30T01:16:11.623Z,76.15
2018-09-30T01:17:11.628Z,75.22
2018-09-30T01:18:11.601Z,74.19
2018-09-30T01:19:11.590Z,76.15
2018-09-30T01:20:11.578Z,74.19
2018-09-30T01:21:11.567Z,74.12
2018-09-30T01:22:11.569Z,74.19
2018-09-30T01:23:11.547Z,73.88
2018-09-30T01:24:11.533Z,73.29
2018-09-30T01:25:11.520Z,74.08
2018-09-30T01:26:11.510Z,74.29
2018-09-30T01:27:11.517Z,74.29
2018-09-30T01:28:11.491Z,73.77
2018-09-30T01:29:11.478Z,73.57
2018-09-30T01:30:11.468Z,74.19
2018-09-30T01:31:11.455Z,73.77
2018-09-30T01:32:11.471Z,72.53
2018-09-30T01:33:11.431Z,73.98
2018-09-30T01:34:11.419Z,73.46
2018-09-30T01:35:11.410Z,73.67
2018-09-30T01:36:11.399Z,73.67
2018-09-30T01:37:11.389Z,72.43
2018-09-30T01:38:11.393Z,72.94
2018-09-30T01:39:11.365Z,73.88
2018-09-30T01:40:11.359Z,73.25
2018-09-30T01:41:11.346Z,72.64
2018-09-30T01:42:11.333Z,72.64
2018-09-30T01:43:11.333Z,72.64
2018-09-30T01:44:11.306Z,73.67
2018-09-30T01:45:11.299Z,73.67
2018-09-30T01:46:11.304Z,73.77
2018-09-30T01:47:11.277Z,73.67
2018-09-30T01:48:11.279Z,73.67
2018-09-30T01:49:11.253Z,73.88
2018-09-30T01:50:11.242Z,73.57
2018-09-30T01:51:11.233Z,72.64
2018-09-30T01:52:11.220Z,72.98
2018-09-30T01:53:11.219Z,73.88
2018-09-30T01:54:11.195Z,72.64
2018-09-30T01:55:11.187Z,73.67
2018-09-30T01:56:11.172Z,72.85
2018-09-30T01:57:11.160Z,72.74
2018-09-30T01:58:11.174Z,72.56
2018-09-30T01:59:11.140Z,72.22
2018-09-30T02:00:11.129Z,71.73
2018-09-30T02:01:11.117Z,71.63
2018-09-30T02:02:11.107Z,72.64
2018-09-30T02:03:11.094Z,72.46
2018-09-30T02:04:11.100Z,72.77
2018-09-30T02:05:11.074Z,72.98
2018-09-30T02:06:11.063Z,73.29
2018-09-30T02:07:11.053Z,73.29
2018-09-30T02:08:11.042Z,72.67
2018-09-30T02:09:11.043Z,73.50
2018-09-30T02:10:11.015Z,73.19
2018-09-30T02:11:11.009Z,73.60
2018-09-30T02:12:10.994Z,73.71
2018-09-30T02:13:10.981Z,74.15
2018-09-30T02:14:10.986Z,74.15
2018-09-30T02:15:10.958Z,73.74
2018-09-30T02:16:10.950Z,74.05
2018-09-30T02:17:10.938Z,74.05
2018-09-30T02:18:10.928Z,73.63
2018-09-30T02:19:10.929Z,73.08
2018-09-30T02:20:10.905Z,73.39
2018-09-30T02:21:10.899Z,73.74
2018-09-30T02:22:10.880Z,74.05
2018-09-30T02:23:10.869Z,73.19
2018-09-30T02:24:10.878Z,74.02
2018-09-30T02:25:10.846Z,74.53
2018-09-30T02:26:10.837Z,73.94
2018-09-30T02:27:10.823Z,74.36
2018-09-30T02:28:10.814Z,73.81
2018-09-30T02:29:10.802Z,72.98
2018-09-30T02:30:10.807Z,73.60
2018-09-30T02:31:10.783Z,73.71
2018-09-30T02:32:10.768Z,73.60
2018-09-30T02:33:10.759Z,73.60
2018-09-30T02:34:10.746Z,73.50
2018-09-30T02:35:10.747Z,73.29
2018-09-30T02:36:10.724Z,72.98
2018-09-30T02:37:10.711Z,72.56
2018-09-30T02:38:10.701Z,73.08
2018-09-30T02:39:10.690Z,73.81
2018-09-30T02:40:10.689Z,72.46
2018-09-30T02:41:10.669Z,71.73
2018-09-30T02:42:10.657Z,70.87
2018-09-30T02:43:10.643Z,72.43
2018-09-30T02:44:10.633Z,72.22
2018-09-30T02:45:10.640Z,72.64
2018-09-30T02:46:10.610Z,72.43
2018-09-30T02:47:10.601Z,72.53
2018-09-30T02:48:10.589Z,70.57
2018-09-30T02:49:10.581Z,71.08
2018-09-30T02:50:10.577Z,70.77
2018-09-30T02:51:10.555Z,70.77
2018-09-30T02:52:10.550Z,71.08
2018-09-30T02:53:10.532Z,71.08
2018-09-30T02:54:10.519Z,70.36
2018-09-30T02:55:10.525Z,70.36
2018-09-30T02:56:10.498Z,70.77
2018-09-30T02:57:10.490Z,69.50
2018-09-30T02:58:10.473Z,69.71
2018-09-30T02:59:10.463Z,69.19
2018-09-30T03:00:10.476Z,68.67
2018-09-30T03:01:10.440Z,68.98
2018-09-30T03:02:10.430Z,68.64
2018-09-30T03:03:10.418Z,68.95
2018-09-30T03:04:10.406Z,68.85
2018-09-30T03:05:10.398Z,69.98
2018-09-30T03:06:10.399Z,68.85
2018-09-30T03:07:10.371Z,68.64
2018-09-30T03:08:10.364Z,68.43
2018-09-30T03:09:10.350Z,68.23
2018-09-30T03:10:10.336Z,69.37
2018-09-30T03:11:10.340Z,68.85
2018-09-30T03:12:10.313Z,68.74
2018-09-30T03:13:10.312Z,68.54
2018-09-30T03:14:10.300Z,68.64
2018-09-30T03:15:10.280Z,68.33
2018-09-30T03:16:10.286Z,68.85
2018-09-30T03:17:10.259Z,68.95
2018-09-30T03:18:10.247Z,68.85
2018-09-30T03:19:10.238Z,68.74
2018-09-30T03:20:10.227Z,69.47
2018-09-30T03:21:10.233Z,68.64
2018-09-30T03:22:10.204Z,68.85
2018-09-30T03:23:10.191Z,68.95
2018-09-30T03:24:10.181Z,68.23
2018-09-30T03:25:10.179Z,68.43
2018-09-30T03:26:10.179Z,69.26
2018-09-30T03:27:10.146Z,69.57
2018-09-30T03:28:10.134Z,69.16
2018-09-30T03:29:10.128Z,69.37
2018-09-30T03:30:10.113Z,69.67
2018-09-30T03:31:10.115Z,69.98
2018-09-30T03:32:10.091Z,69.47
2018-09-30T03:33:10.078Z,69.37
2018-09-30T03:34:10.069Z,69.09
2018-09-30T03:35:10.058Z,69.81
2018-09-30T03:36:10.077Z,69.19
2018-09-30T03:37:10.036Z,69.19
2018-09-30T03:38:10.021Z,69.60
2018-09-30T03:39:10.013Z,69.29
2018-09-30T03:40:10.013Z,69.92
2018-09-30T03:41:09.988Z,70.53
2018-09-30T03:42:09.992Z,70.95
2018-09-30T03:43:09.968Z,70.87
2018-09-30T03:44:09.999Z,70.57
2018-09-30T03:45:09.945Z,70.98
2018-09-30T03:46:09.930Z,70.98
2018-09-30T03:47:09.933Z,70.47
2018-09-30T03:48:09.910Z,71.33
2018-09-30T03:49:09.901Z,71.70
2018-09-30T03:50:09.885Z,72.77
2018-09-30T03:51:09.876Z,72.56
2018-09-30T03:52:09.881Z,72.46
2018-09-30T03:53:09.854Z,72.46
2018-09-30T03:54:09.845Z,72.50
2018-09-30T03:55:09.830Z,72.60
2018-09-30T03:56:09.820Z,72.60
2018-09-30T03:57:09.822Z,73.84
2018-09-30T03:58:09.796Z,74.05
2018-09-30T03:59:09.789Z,73.32
2018-09-30T04:00:09.774Z,74.05
2018-09-30T04:01:09.760Z,74.29
2018-09-30T04:02:09.766Z,74.71
2018-09-30T04:03:09.739Z,75.63
2018-09-30T04:04:09.730Z,74.88
2018-09-30T04:05:09.781Z,74.57
2018-09-30T04:06:09.705Z,74.71
2018-09-30T04:07:09.716Z,74.77
2018-09-30T04:08:09.682Z,74.57
2018-09-30T04:09:09.674Z,74.60
2018-09-30T04:10:09.692Z,74.60
2018-09-30T04:11:09.650Z,74.77
2018-09-30T04:12:09.637Z,74.60
2018-09-30T04:13:09.645Z,74.77
2018-09-30T04:14:09.614Z,74.57
2018-09-30T04:15:09.606Z,74.98
2018-09-30T04:16:09.591Z,74.19
2018-09-30T04:17:09.641Z,74.98
2018-09-30T04:18:09.585Z,76.02
2018-09-30T04:19:09.558Z,75.60
2018-09-30T04:20:09.547Z,74.67
2018-09-30T04:21:09.538Z,74.77
2018-09-30T04:22:09.526Z,75.02
2018-09-30T04:23:09.525Z,74.05
2018-09-30T04:24:09.505Z,74.91
2018-09-30T04:25:09.490Z,75.19
2018-09-30T04:26:09.481Z,75.71
2018-09-30T04:27:09.468Z,75.02
2018-09-30T04:28:09.476Z,74.40
2018-09-30T04:29:09.446Z,74.91
2018-09-30T04:30:09.437Z,75.63
2018-09-30T04:31:09.423Z,75.74
2018-09-30T04:32:09.414Z,76.15
2018-09-30T04:33:09.434Z,76.57
2018-09-30T04:34:09.412Z,77.09
2018-09-30T04:35:09.380Z,77.29
2018-09-30T04:36:09.371Z,77.40
2018-09-30T04:37:09.357Z,78.44
2018-09-30T04:38:09.371Z,78.64
2018-09-30T04:39:09.335Z,79.92
2018-09-30T04:40:09.322Z,80.13
2018-09-30T04:41:09.314Z,78.58
2018-09-30T04:42:09.301Z,79.71
2018-09-30T04:43:09.290Z,80.13
2018-09-30T04:44:09.295Z,80.13
2018-09-30T04:45:09.267Z,79.41
2018-09-30T04:46:09.257Z,78.99
2018-09-30T04:47:09.246Z,78.58
2018-09-30T04:48:09.233Z,78.89
2018-09-30T04:49:09.237Z,78.78
2018-09-30T04:50:09.296Z,78.09
2018-09-30T04:51:09.199Z,79.13
2018-09-30T04:52:09.189Z,79.65
2018-09-30T04:53:09.186Z,79.55
2018-09-30T04:54:09.180Z,79.03
2018-09-30T04:55:09.157Z,78.20
2018-09-30T04:56:09.146Z,78.37
2018-09-30T04:57:09.134Z,77.95
2018-09-30T04:58:09.133Z,79.03
2018-09-30T04:59:09.123Z,78.82
2018-09-30T05:00:09.109Z,80.06
2018-09-30T05:01:09.085Z,79.44
2018-09-30T05:02:09.074Z,80.27
2018-09-30T05:03:09.067Z,80.37
2018-09-30T05:04:09.069Z,79.24
2018-09-30T05:05:09.045Z,79.44
2018-09-30T05:06:09.033Z,79.24
2018-09-30T05:07:09.029Z,78.61
2018-09-30T05:08:09.008Z,79.24
2018-09-30T05:09:09.010Z,78.09
2018-09-30T05:10:08.987Z,77.51
2018-09-30T05:11:08.974Z,77.51
2018-09-30T05:12:08.962Z,78.09
2018-09-30T05:13:08.955Z,78.13
2018-09-30T05:14:08.944Z,78.13
2018-09-30T05:15:08.943Z,78.03
2018-09-30T05:16:09.010Z,78.23
2018-09-30T05:17:08.910Z,78.65
2018-09-30T05:18:08.919Z,79.41
2018-09-30T05:19:08.884Z,79.72
2018-09-30T05:20:08.888Z,79.41
2018-09-30T05:21:08.863Z,80.45
2018-09-30T05:22:08.854Z,80.14
2018-09-30T05:23:08.840Z,81.07
2018-09-30T05:24:08.832Z,81.80
2018-09-30T05:25:08.834Z,83.25
2018-09-30T05:26:08.806Z,83.36
2018-09-30T05:27:08.794Z,83.67
2018-09-30T05:28:08.785Z,83.36
2018-09-30T05:29:08.773Z,83.87
2018-09-30T05:30:08.779Z,82.25
2018-09-30T05:31:08.791Z,81.70
2018-09-30T05:32:08.743Z,83.70
2018-09-30T05:33:08.728Z,83.91
2018-09-30T05:34:08.719Z,83.60
2018-09-30T05:35:08.723Z,82.87
2018-09-30T05:36:08.698Z,83.18
2018-09-30T05:37:08.761Z,82.67
2018-09-30T05:38:08.676Z,81.94
2018-09-30T05:39:08.662Z,81.73
2018-09-30T05:40:08.664Z,82.15
2018-09-30T05:41:08.642Z,83.18
2018-09-30T05:42:08.629Z,83.91
2018-09-30T05:43:08.620Z,84.01
2018-09-30T05:44:08.606Z,84.22
2018-09-30T05:45:08.611Z,84.22
2018-09-30T05:46:08.586Z,84.43
2018-09-30T05:47:08.573Z,84.33
2018-09-30T05:48:08.562Z,84.33
2018-09-30T05:49:08.574Z,84.33
2018-09-30T05:50:08.556Z,83.60
2018-09-30T05:51:08.530Z,83.81
2018-09-30T05:52:08.517Z,82.77
2018-09-30T05:53:08.506Z,82.39
2018-09-30T05:54:08.494Z,82.60
2018-09-30T05:55:08.506Z,82.50
2018-09-30T05:56:08.471Z,82.29
2018-09-30T05:57:08.464Z,82.91
2018-09-30T05:58:08.504Z,83.43
2018-09-30T05:59:08.438Z,83.74
2018-09-30T06:00:08.429Z,83.33
2018-09-30T06:01:08.429Z,83.95
2018-09-30T06:02:08.406Z,83.84
2018-09-30T06:03:08.395Z,83.74
2018-09-30T06:04:08.454Z,83.84
2018-09-30T06:05:08.373Z,83.95
2018-09-30T06:06:08.374Z,83.43
2018-09-30T06:07:08.349Z,83.43
2018-09-30T06:08:08.338Z,83.74
2018-09-30T06:09:08.421Z,82.91
2018-09-30T06:10:08.316Z,83.74
2018-09-30T06:11:08.321Z,83.33
2018-09-30T06:12:08.292Z,83.01
2018-09-30T06:13:08.281Z,82.70
2018-09-30T06:14:08.422Z,82.81
2018-09-30T06:15:08.257Z,82.35
2018-09-30T06:16:08.276Z,82.35
2018-09-30T06:17:08.236Z,82.35
2018-09-30T06:18:08.224Z,82.81
2018-09-30T06:19:08.217Z,82.67
2018-09-30T06:20:08.202Z,82.67
2018-09-30T06:21:08.195Z,82.25
2018-09-30T06:22:08.198Z,82.67
2018-09-30T06:23:08.170Z,82.46
2018-09-30T06:24:08.202Z,82.46
2018-09-30T06:25:08.147Z,81.84
2018-09-30T06:26:08.221Z,82.25
2018-09-30T06:27:08.136Z,81.42
2018-09-30T06:28:08.118Z,82.15
2018-09-30T06:29:08.103Z,81.84
2018-09-30T06:30:08.092Z,81.73
2018-09-30T06:31:08.083Z,81.52
2018-09-30T06:32:08.194Z,81.42
2018-09-30T06:33:08.127Z,81.28
2018-09-30T06:34:08.046Z,82.11
2018-09-30T06:35:08.038Z,81.59
2018-09-30T06:36:08.036Z,81.49
2018-09-30T06:37:08.059Z,81.97
2018-09-30T06:38:07.998Z,81.49
2018-09-30T06:39:07.992Z,81.38
2018-09-30T06:40:07.979Z,81.38
2018-09-30T06:41:07.965Z,81.59
2018-09-30T06:42:07.969Z,82.11
2018-09-30T06:43:07.944Z,81.66
2018-09-30T06:44:07.936Z,81.35
2018-09-30T06:45:07.961Z,81.56
2018-09-30T06:46:07.914Z,81.56
2018-09-30T06:47:07.919Z,81.35
2018-09-30T06:48:07.891Z,81.45
2018-09-30T06:49:07.877Z,80.99
2018-09-30T06:50:07.869Z,80.37
2018-09-30T06:51:07.855Z,80.79
2018-09-30T06:52:07.870Z,80.06
2018-09-30T06:53:07.835Z,80.99
2018-09-30T06:54:07.827Z,81.62
2018-09-30T06:55:07.812Z,80.02
2018-09-30T06:56:07.806Z,79.92
2018-09-30T06:57:07.787Z,80.44
2018-09-30T06:58:07.790Z,80.44
2018-09-30T06:59:07.768Z,80.33
2018-09-30T07:00:07.757Z,80.30
2018-09-30T07:01:07.744Z,80.30
2018-09-30T07:02:07.732Z,80.51
2018-09-30T07:03:07.735Z,80.30
2018-09-30T07:04:07.712Z,80.19
2018-09-30T07:05:07.698Z,80.19
2018-09-30T07:06:07.686Z,80.36
2018-09-30T07:07:07.677Z,79.44
2018-09-30T07:08:07.682Z,79.23
2018-09-30T07:09:07.654Z,79.50
2018-09-30T07:10:07.645Z,79.09
2018-09-30T07:11:07.636Z,78.26
2018-09-30T07:12:07.619Z,78.33
2018-09-30T07:13:07.624Z,77.81
2018-09-30T07:14:07.597Z,77.39
2018-09-30T07:15:07.590Z,76.43
2018-09-30T07:16:07.575Z,76.60
2018-09-30T07:17:07.563Z,75.78
2018-09-30T07:18:07.570Z,75.32
2018-09-30T07:19:07.543Z,75.84
2018-09-30T07:20:07.584Z,75.74
2018-09-30T07:21:07.525Z,75.84
2018-09-30T07:22:07.564Z,75.53
2018-09-30T07:23:07.509Z,76.22
2018-09-30T07:24:07.485Z,74.98
2018-09-30T07:25:07.474Z,74.12
2018-09-30T07:26:07.464Z,74.63
2018-09-30T07:27:07.448Z,74.12
2018-09-30T07:28:07.469Z,73.77
2018-09-30T07:29:07.430Z,72.44
2018-09-30T07:30:07.416Z,72.44
2018-09-30T07:31:07.407Z,72.54
2018-09-30T07:32:07.396Z,73.12
2018-09-30T07:33:07.384Z,72.81
2018-09-30T07:34:07.392Z,71.99
2018-09-30T07:35:07.360Z,72.09
2018-09-30T07:36:07.350Z,70.82
2018-09-30T07:37:07.340Z,72.44
2018-09-30T07:38:07.329Z,70.48
2018-09-30T07:39:07.336Z,69.62
2018-09-30T07:40:07.318Z,69.73
2018-09-30T07:41:07.292Z,69.83
2018-09-30T07:42:07.282Z,69.07
2018-09-30T07:43:07.272Z,68.56
2018-09-30T07:44:07.272Z,68.56
2018-09-30T07:45:07.250Z,69.15
2018-09-30T07:46:07.235Z,66.67
2018-09-30T07:47:07.226Z,66.58
2018-09-30T07:48:07.220Z,65.52
2018-09-30T07:49:07.233Z,65.41
2018-09-30T07:50:07.195Z,63.74
2018-09-30T07:51:07.179Z,62.58
2018-09-30T07:52:07.171Z,61.62
2018-09-30T07:53:07.160Z,61.32
2018-09-30T07:54:07.145Z,60.16
2018-09-30T07:55:07.153Z,59.95
2018-09-30T07:56:07.126Z,59.82
2018-09-30T07:57:07.117Z,59.20
2018-09-30T07:58:07.103Z,58.87
2018-09-30T07:59:07.093Z,59.18
2018-09-30T08:00:07.094Z,59.08
2018-09-30T08:01:07.067Z,57.82
2018-09-30T08:02:07.057Z,57.82
2018-09-30T08:03:07.047Z,57.20
2018-09-30T08:04:07.035Z,56.69
2018-09-30T08:05:07.040Z,56.56
2018-09-30T08:06:07.035Z,55.64
2018-09-30T08:07:06.999Z,56.74
2018-09-30T08:08:06.990Z,55.08
2018-09-30T08:09:06.979Z,58.40
2018-09-30T08:10:06.980Z,59.30
2018-09-30T08:11:06.958Z,54.16
2018-09-30T08:12:06.942Z,51.78
2018-09-30T08:13:06.931Z,50.53
2018-09-30T08:14:06.922Z,51.84
2018-09-30T08:15:06.926Z,52.75
2018-09-30T08:16:06.897Z,49.18
2018-09-30T08:17:06.890Z,51.61
2018-09-30T08:18:06.876Z,51.07
2018-09-30T08:19:06.867Z,47.38
2018-09-30T08:20:06.867Z,48.48
2018-09-30T08:21:06.848Z,49.07
2018-09-30T08:22:06.830Z,46.09
2018-09-30T08:23:06.822Z,47.29
2018-09-30T08:24:06.882Z,45.84
2018-09-30T08:25:06.812Z,44.85
2018-09-30T08:26:06.785Z,47.70
2018-09-30T08:27:06.776Z,44.34
2018-09-30T08:28:06.763Z,45.07
2018-09-30T08:29:06.753Z,46.37
2018-09-30T08:30:06.766Z,44.57
2018-09-30T08:31:06.727Z,44.97
2018-09-30T08:32:06.716Z,45.00
2018-09-30T08:33:06.710Z,45.61
2018-09-30T08:34:06.698Z,47.74
2018-09-30T08:35:06.691Z,45.79
2018-09-30T08:36:06.686Z,45.36
2018-09-30T08:37:06.677Z,44.57
2018-09-30T08:38:06.648Z,45.46
2018-09-30T08:39:06.646Z,44.65
2018-09-30T08:40:06.730Z,44.65
2018-09-30T08:41:06.628Z,46.68
2018-09-30T08:42:06.620Z,45.84
2018-09-30T08:43:06.593Z,45.11
2018-09-30T08:44:06.610Z,42.74
2018-09-30T08:45:06.570Z,43.55
2018-09-30T08:46:06.571Z,41.70
2018-09-30T08:47:06.609Z,41.97
2018-09-30T08:48:06.535Z,41.26
2018-09-30T08:49:06.556Z,43.81
2018-09-30T08:50:06.514Z,42.29
2018-09-30T08:51:06.582Z,41.68
2018-09-30T08:52:06.488Z,42.13
2018-09-30T08:53:06.482Z,42.76
2018-09-30T08:54:06.473Z,43.06
2018-09-30T08:55:06.455Z,43.49
2018-09-30T08:56:06.555Z,43.71
2018-09-30T08:57:06.450Z,44.02
2018-09-30T08:58:06.422Z,44.53
2018-09-30T08:59:06.411Z,44.91
2018-09-30T09:00:06.400Z,43.51
2018-09-30T09:01:07.008Z,44.65
2018-09-30T09:02:06.392Z,44.53
2018-09-30T09:03:06.404Z,44.22
2018-09-30T09:04:06.352Z,45.44
2018-09-30T09:05:06.348Z,44.32
2018-09-30T09:06:06.331Z,43.49
2018-09-30T09:07:06.334Z,41.11
2018-09-30T09:08:06.311Z,42.63
2018-09-30T09:09:06.302Z,44.13
2018-09-30T09:10:06.287Z,44.20
2018-09-30T09:11:06.277Z,42.33
2018-09-30T09:12:06.288Z,41.40
2018-09-30T09:13:06.254Z,39.28
2018-09-30T09:14:06.239Z,39.50
2018-09-30T09:15:06.229Z,40.02
2018-09-30T09:16:06.217Z,41.26
2018-09-30T09:17:06.223Z,42.37
2018-09-30T09:18:06.192Z,41.46
2018-09-30T09:19:06.183Z,41.44
2018-09-30T09:20:06.173Z,41.42
2018-09-30T09:21:06.160Z,41.12
2018-09-30T09:22:06.165Z,40.09
2018-09-30T09:23:06.138Z,38.91
2018-09-30T09:24:06.130Z,38.93
2018-09-30T09:25:06.120Z,40.24
2018-09-30T09:26:06.118Z,40.04
2018-09-30T09:27:06.162Z,39.94
2018-09-30T09:28:06.144Z,41.07
2018-09-30T09:29:06.071Z,41.82
2018-09-30T09:30:06.065Z,41.76
2018-09-30T09:31:06.048Z,42.80
2018-09-30T09:32:06.037Z,43.02
2018-09-30T09:33:06.102Z,43.12
2018-09-30T09:34:06.013Z,44.04
2018-09-30T09:35:06.062Z,44.02
2018-09-30T09:36:05.989Z,43.51
2018-09-30T09:37:05.981Z,43.91
2018-09-30T09:38:05.982Z,42.80
2018-09-30T09:39:05.957Z,43.02
2018-09-30T09:40:05.945Z,43.32
2018-09-30T09:41:05.932Z,43.55
2018-09-30T09:42:05.921Z,44.36
2018-09-30T09:43:05.924Z,44.26
2018-09-30T09:44:05.901Z,44.14
2018-09-30T09:45:05.892Z,43.84
2018-09-30T09:46:05.877Z,44.54
2018-09-30T09:47:05.928Z,44.12
2018-09-30T09:48:05.865Z,44.54
2018-09-30T09:49:05.844Z,44.04
2018-09-30T09:50:05.832Z,44.22
2018-09-30T09:51:05.819Z,44.51
2018-09-30T09:52:05.814Z,45.40
2018-09-30T09:53:05.795Z,45.07
2018-09-30T09:54:05.802Z,42.60
2018-09-30T09:55:05.789Z,41.38
2018-09-30T09:56:05.761Z,42.51
2018-09-30T09:57:05.751Z,42.72
2018-09-30T09:58:05.742Z,44.42
2018-09-30T09:59:05.837Z,42.98
2018-09-30T10:00:05.717Z,41.64
2018-09-30T10:01:05.708Z,41.12
2018-09-30T10:02:05.694Z,41.00
2018-09-30T10:03:05.682Z,40.37
2018-09-30T10:04:05.689Z,40.33
2018-09-30T10:05:05.707Z,39.59
2018-09-30T10:06:05.651Z,38.24
2018-09-30T10:07:05.636Z,37.31
2018-09-30T10:08:05.688Z,36.00
2018-09-30T10:09:05.631Z,36.12
2018-09-30T10:10:05.608Z,37.79
2018-09-30T10:11:05.598Z,38.92
2018-09-30T10:12:05.580Z,39.12
2018-09-30T10:13:05.624Z,38.02
2018-09-30T10:14:05.580Z,39.93
2018-09-30T10:15:05.566Z,38.70
2018-09-30T10:16:05.537Z,37.97
2018-09-30T10:17:05.599Z,36.04
2018-09-30T10:18:05.571Z,37.85
2018-09-30T10:19:05.522Z,37.04
2018-09-30T10:20:05.489Z,38.44
2018-09-30T10:21:05.477Z,36.91
2018-09-30T10:22:05.472Z,37.49
2018-09-30T10:23:05.455Z,36.66
2018-09-30T10:24:05.444Z,36.05
2018-09-30T10:25:05.454Z,35.43
2018-09-30T10:26:05.422Z,34.92
2018-09-30T10:27:05.414Z,35.41
2018-09-30T10:28:05.402Z,33.28
2018-09-30T10:29:05.388Z,34.71
2018-09-30T10:30:05.431Z,35.31
2018-09-30T10:31:05.368Z,32.91
2018-09-30T10:32:05.377Z,34.24
2018-09-30T10:33:05.346Z,34.96
2018-09-30T10:34:05.338Z,35.57
2018-09-30T10:35:05.344Z,34.88
2018-09-30T10:36:05.311Z,35.08
2018-09-30T10:37:05.298Z,35.21
2018-09-30T10:38:05.285Z,37.87
2018-09-30T10:39:05.401Z,37.68
2018-09-30T10:40:05.287Z,36.98
2018-09-30T10:41:05.274Z,36.99
2018-09-30T10:42:05.262Z,40.13
2018-09-30T10:43:05.249Z,39.64
2018-09-30T10:44:05.223Z,41.44
2018-09-30T10:45:05.227Z,38.78
2018-09-30T10:46:05.202Z,36.94
2018-09-30T10:47:05.186Z,37.71
2018-09-30T10:48:05.176Z,36.17
2018-09-30T10:49:05.164Z,35.13
2018-09-30T10:50:05.171Z,35.03
2018-09-30T10:51:05.145Z,35.21
2018-09-30T10:52:05.129Z,34.20
2018-09-30T10:53:05.139Z,33.79
2018-09-30T10:54:05.111Z,33.18
2018-09-30T10:55:05.096Z,34.27
2018-09-30T10:56:05.176Z,34.64
2018-09-30T10:57:05.072Z,33.32
2018-09-30T10:58:05.061Z,31.24
2018-09-30T10:59:05.058Z,34.49
2018-09-30T11:00:05.039Z,34.79
2018-09-30T11:01:05.042Z,33.57
2018-09-30T11:02:05.016Z,33.17
2018-09-30T11:03:05.032Z,32.87
2018-09-30T11:04:04.995Z,31.24
2018-09-30T11:05:04.985Z,31.24
2018-09-30T11:06:04.980Z,32.28
2018-09-30T11:07:04.961Z,33.48
2018-09-30T11:08:04.949Z,33.39
2018-09-30T11:09:04.974Z,31.36
2018-09-30T11:10:05.038Z,33.45
2018-09-30T11:11:04.973Z,33.34
2018-09-30T11:12:04.903Z,33.12
2018-09-30T11:13:04.894Z,32.21
2018-09-30T11:14:04.882Z,33.54
2018-09-30T11:15:04.869Z,32.43
2018-09-30T11:16:04.908Z,32.17
2018-09-30T11:17:04.847Z,33.60
2018-09-30T11:18:04.839Z,36.00
2018-09-30T11:19:04.865Z,34.09
2018-09-30T11:20:04.832Z,34.09
2018-09-30T11:21:04.820Z,33.59
2018-09-30T11:22:04.807Z,33.17
2018-09-30T11:23:04.778Z,31.65
2018-09-30T11:24:04.767Z,33.84
2018-09-30T11:25:04.761Z,30.83
2018-09-30T11:26:04.743Z,33.45
2018-09-30T11:27:04.748Z,33.44
2018-09-30T11:28:04.721Z,30.50
2018-09-30T11:29:04.711Z,31.13
2018-09-30T11:30:04.699Z,33.07
2018-09-30T11:31:04.689Z,35.30
2018-09-30T11:32:04.692Z,32.70
2018-09-30T11:33:04.664Z,33.47
2018-09-30T11:34:04.651Z,31.86
2018-09-30T11:35:04.642Z,32.28
2018-09-30T11:36:04.632Z,33.67
2018-09-30T11:37:04.633Z,32.26
2018-09-30T11:38:04.608Z,32.85
2018-09-30T11:39:04.597Z,33.54
2018-09-30T11:40:04.585Z,31.62
2018-09-30T11:41:04.579Z,31.53
2018-09-30T11:42:04.616Z,31.36
2018-09-30T11:43:04.550Z,31.99
2018-09-30T11:44:04.540Z,35.35
2018-09-30T11:45:04.532Z,37.18
2018-09-30T11:46:04.518Z,34.27
2018-09-30T11:47:04.526Z,36.08
2018-09-30T11:48:04.498Z,34.16
2018-09-30T11:49:04.489Z,35.16
2018-09-30T11:50:04.473Z,33.53
2018-09-30T11:51:04.463Z,35.33
2018-09-30T11:52:04.451Z,33.42
2018-09-30T11:53:04.453Z,33.03
2018-09-30T11:54:04.433Z,33.33
2018-09-30T11:55:04.416Z,33.26
2018-09-30T11:56:04.407Z,34.77
2018-09-30T11:57:04.399Z,35.88
2018-09-30T11:58:04.394Z,36.35
2018-09-30T11:59:04.368Z,35.33
2018-09-30T12:00:04.361Z,31.98
2018-09-30T12:01:04.412Z,33.57
2018-09-30T12:02:04.337Z,30.73
2018-09-30T12:03:04.420Z,31.93
2018-09-30T12:04:04.312Z,31.03
2018-09-30T12:05:04.302Z,32.23
2018-09-30T12:06:04.293Z,30.93
2018-09-30T12:07:04.282Z,30.34
2018-09-30T12:08:04.283Z,31.36
2018-09-30T12:09:04.261Z,31.89
2018-09-30T12:10:04.248Z,33.42
2018-09-30T12:11:04.235Z,34.32
2018-09-30T12:12:04.260Z,34.29
2018-09-30T12:13:04.228Z,34.47
2018-09-30T12:14:04.200Z,32.56
2018-09-30T12:15:04.196Z,33.18
2018-09-30T12:16:04.177Z,33.57
2018-09-30T12:17:04.167Z,31.23
2018-09-30T12:18:04.181Z,29.81
2018-09-30T12:19:04.147Z,29.99
2018-09-30T12:20:04.133Z,29.69
2018-09-30T12:21:04.125Z,30.48
2018-09-30T12:22:04.111Z,30.78
2018-09-30T12:23:04.102Z,29.97
2018-09-30T12:24:04.104Z,29.18
2018-09-30T12:25:04.084Z,30.12
2018-09-30T12:26:04.067Z,30.93
2018-09-30T12:27:04.058Z,31.83
2018-09-30T12:28:04.047Z,31.13
2018-09-30T12:29:04.047Z,31.33
2018-09-30T12:30:04.019Z,30.63
2018-09-30T12:31:04.016Z,31.34
2018-09-30T12:32:04.001Z,31.66
2018-09-30T12:33:03.989Z,32.28
2018-09-30T12:34:03.995Z,32.11
2018-09-30T12:35:03.967Z,33.01
2018-09-30T12:36:03.954Z,33.30
2018-09-30T12:37:03.945Z,32.90
2018-09-30T12:38:03.935Z,32.50
2018-09-30T12:39:03.935Z,32.98
2018-09-30T12:40:03.910Z,31.91
2018-09-30T12:41:03.897Z,32.14
2018-09-30T12:42:03.884Z,33.76
2018-09-30T12:43:03.876Z,34.25
2018-09-30T12:44:03.879Z,33.35
2018-09-30T12:45:03.850Z,32.04
2018-09-30T12:46:03.847Z,33.04
2018-09-30T12:47:03.832Z,33.44
2018-09-30T12:48:03.816Z,32.24
2018-09-30T12:49:03.837Z,33.45
2018-09-30T12:50:03.796Z,33.03
2018-09-30T12:51:03.791Z,32.23
2018-09-30T12:52:03.772Z,33.44